createdAt,value
2018-09-13T00:00:10.872Z,10.70
2018-09-13T00:01:10.810Z,12.00
2018-09-13T00:02:10.750Z,12.10
2018-09-13T00:03:10.691Z,10.30
2018-09-13T00:04:10.633Z,10.90
2018-09-13T00:05:10.570Z,12.00
2018-09-13T00:06:10.513Z,10.90
2018-09-13T00:07:10.451Z,11.80
2018-09-13T00:08:10.393Z,10.90
2018-09-13T00:09:10.330Z,11.00
2018-09-13T00:10:10.272Z,12.50
2018-09-13T00:11:10.217Z,12.50
2018-09-13T00:12:10.154Z,11.50
2018-09-13T00:13:10.094Z,13.90
2018-09-13T00:14:10.034Z,12.30
2018-09-13T00:15:09.975Z,11.90
2018-09-13T00:16:09.914Z,12.50
2018-09-13T00:17:09.855Z,11.90
2018-09-13T00:18:09.795Z,12.50
2018-09-13T00:19:09.735Z,11.00
2018-09-13T00:20:09.676Z,11.50
2018-09-13T00:21:09.617Z,11.00
2018-09-13T00:22:09.556Z,11.20
2018-09-13T00:23:09.495Z,11.10
2018-09-13T00:24:09.436Z,12.60
2018-09-13T00:25:09.377Z,11.30
2018-09-13T00:26:09.318Z,12.60
2018-09-13T00:27:09.261Z,10.90
2018-09-13T00:28:09.204Z,10.40
2018-09-13T00:29:09.139Z,10.70
2018-09-13T00:30:09.077Z,11.80
2018-09-13T00:31:09.016Z,10.90
2018-09-13T00:32:08.959Z,10.90
2018-09-13T00:33:08.917Z,11.40
2018-09-13T00:34:08.841Z,12.00
2018-09-13T00:35:08.781Z,9.30
2018-09-13T00:36:08.719Z,10.00
2018-09-13T00:37:08.673Z,11.30
2018-09-13T00:38:08.601Z,10.40
2018-09-13T00:39:08.541Z,11.40
2018-09-13T00:40:08.479Z,11.80
2018-09-13T00:41:08.420Z,11.20
2018-09-13T00:42:08.361Z,13.00
2018-09-13T00:43:08.300Z,10.50
2018-09-13T00:44:08.244Z,11.30
2018-09-13T00:45:08.181Z,9.70
2018-09-13T00:46:08.120Z,10.40
2018-09-13T00:47:08.062Z,10.50
2018-09-13T00:48:08.003Z,10.20
2018-09-13T00:49:07.943Z,10.40
2018-09-13T00:50:07.882Z,10.20
2018-09-13T00:51:07.823Z,9.80
2018-09-13T00:52:07.764Z,11.60
2018-09-13T00:53:07.703Z,12.10
2018-09-13T00:54:07.644Z,11.00
2018-09-13T00:55:07.583Z,13.00
2018-09-13T00:56:07.524Z,9.70
2018-09-13T00:57:07.463Z,10.00
2018-09-13T00:58:07.403Z,10.60
2018-09-13T00:59:07.346Z,10.20
2018-09-13T01:00:07.288Z,11.90
2018-09-13T01:01:07.219Z,10.70
2018-09-13T01:02:07.163Z,11.90
2018-09-13T01:03:07.106Z,12.20
2018-09-13T01:04:07.046Z,10.10
2018-09-13T01:05:06.988Z,10.90
2018-09-13T01:06:06.926Z,12.20
2018-09-13T01:07:06.862Z,11.10
2018-09-13T01:08:06.803Z,11.70
2018-09-13T01:09:06.749Z,10.80
2018-09-13T01:10:06.691Z,10.40
2018-09-13T01:11:06.632Z,9.70
2018-09-13T01:12:06.574Z,11.60
2018-09-13T01:13:06.509Z,10.80
2018-09-13T01:14:06.449Z,9.80
2018-09-13T01:15:06.390Z,10.30
2018-09-13T01:16:06.335Z,11.30
2018-09-13T01:17:06.272Z,11.20
2018-09-13T01:18:06.212Z,9.70
2018-09-13T01:19:06.150Z,10.90
2018-09-13T01:20:06.092Z,11.00
2018-09-13T01:21:06.031Z,11.10
2018-09-13T01:22:05.975Z,12.00
2018-09-13T01:23:05.909Z,12.60
2018-09-13T01:24:05.853Z,11.50
2018-09-13T01:25:05.789Z,12.00
2018-09-13T01:26:05.734Z,12.60
2018-09-13T01:27:05.674Z,11.90
2018-09-13T01:28:05.615Z,12.10
2018-09-13T01:29:05.555Z,10.10
2018-09-13T01:30:05.493Z,11.00
2018-09-13T01:31:05.436Z,11.10
2018-09-13T01:32:05.374Z,14.50
2018-09-13T01:33:05.315Z,11.10
2018-09-13T01:34:05.255Z,9.40
2018-09-13T01:35:05.197Z,10.40
2018-09-13T01:36:05.137Z,11.40
2018-09-13T01:37:05.078Z,11.60
2018-09-13T01:38:05.017Z,9.80
2018-09-13T01:39:04.957Z,12.70
2018-09-13T01:40:04.902Z,11.00
2018-09-13T01:41:04.837Z,9.10
2018-09-13T01:42:04.780Z,11.90
2018-09-13T01:43:04.719Z,11.80
2018-09-13T01:44:04.664Z,12.60
2018-09-13T01:45:04.597Z,10.00
2018-09-13T01:46:04.540Z,10.30
2018-09-13T01:47:04.481Z,11.40
2018-09-13T01:48:04.422Z,9.40
2018-09-13T01:49:04.363Z,11.30
2018-09-13T01:50:04.304Z,10.40
2018-09-13T01:51:04.242Z,10.50
2018-09-13T01:52:04.183Z,10.20
2018-09-13T01:53:04.123Z,11.70
2018-09-13T01:54:04.063Z,10.50
2018-09-13T01:55:04.003Z,11.10
2018-09-13T01:56:03.946Z,10.00
2018-09-13T01:57:03.881Z,11.90
2018-09-13T01:58:03.825Z,14.80
2018-09-13T01:59:03.782Z,11.00
2018-09-13T02:00:03.706Z,10.90
2018-09-13T02:01:03.648Z,10.30
2018-09-13T02:02:03.597Z,10.00
2018-09-13T02:03:03.530Z,11.00
2018-09-13T02:04:03.467Z,11.00
2018-09-13T02:05:03.408Z,11.00
2018-09-13T02:06:03.352Z,11.20
2018-09-13T02:07:03.291Z,10.40
2018-09-13T02:08:03.241Z,11.40
2018-09-13T02:09:03.185Z,9.30
2018-09-13T02:10:03.112Z,11.00
2018-09-13T02:11:03.050Z,10.40
2018-09-13T02:12:02.992Z,9.90
2018-09-13T02:13:02.949Z,10.80
2018-09-13T02:14:02.872Z,11.50
2018-09-13T02:15:02.814Z,10.00
2018-09-13T02:16:02.760Z,10.90
2018-09-13T02:17:02.695Z,12.00
2018-09-13T02:18:02.635Z,13.50
2018-09-13T02:19:02.572Z,11.00
2018-09-13T02:20:02.516Z,9.70
2018-09-13T02:21:02.459Z,13.20
2018-09-13T02:22:02.396Z,10.70
2018-09-13T02:23:02.338Z,12.30
2018-09-13T02:24:02.277Z,11.30
2018-09-13T02:25:02.231Z,12.30
2018-09-13T02:26:02.159Z,13.30
2018-09-13T02:27:02.099Z,11.20
2018-09-13T02:28:02.049Z,9.70
2018-09-13T02:29:01.980Z,9.90
2018-09-13T02:30:01.922Z,9.90
2018-09-13T02:31:01.857Z,10.40
2018-09-13T02:32:01.821Z,10.40
2018-09-13T02:33:01.749Z,10.20
2018-09-13T02:34:01.679Z,8.70
2018-09-13T02:35:01.626Z,9.80
2018-09-13T02:36:01.579Z,10.20
2018-09-13T02:37:01.509Z,9.50
2018-09-13T02:38:01.445Z,11.00
2018-09-13T02:39:01.384Z,9.60
2018-09-13T02:40:01.328Z,12.60
2018-09-13T02:41:01.267Z,13.00
2018-09-13T02:42:01.209Z,20.30
2018-09-13T02:43:01.150Z,10.80
2018-09-13T02:44:01.089Z,10.80
2018-09-13T02:45:01.027Z,12.20
2018-09-13T02:46:00.969Z,11.50
2018-09-13T02:47:00.907Z,11.30
2018-09-13T02:48:00.851Z,9.60
2018-09-13T02:49:00.799Z,11.00
2018-09-13T02:50:00.734Z,8.90
2018-09-13T02:51:00.673Z,9.60
2018-09-13T02:52:00.616Z,9.30
2018-09-13T02:53:00.551Z,11.20
2018-09-13T02:54:00.494Z,11.40
2018-09-13T02:55:00.439Z,10.10
2018-09-13T02:56:00.379Z,12.20
2018-09-13T02:57:00.318Z,11.70
2018-09-13T02:58:00.257Z,10.70
2018-09-13T02:59:00.198Z,8.10
2018-09-13T03:00:00.137Z,10.80
2018-09-13T03:01:00.095Z,10.00
2018-09-13T03:02:00.015Z,8.10
2018-09-13T03:02:59.960Z,12.40
2018-09-13T03:03:59.901Z,11.70
2018-09-13T03:04:59.839Z,9.70
2018-09-13T03:05:59.785Z,11.40
2018-09-13T03:06:59.725Z,10.70
2018-09-13T03:07:59.664Z,10.20
2018-09-13T03:08:59.603Z,8.70
2018-09-13T03:09:59.568Z,10.70
2018-09-13T03:10:59.485Z,9.90
2018-09-13T03:11:59.424Z,9.40
2018-09-13T03:12:59.365Z,10.40
2018-09-13T03:13:59.305Z,8.30
2018-09-13T03:14:59.247Z,7.90
2018-09-13T03:15:59.188Z,8.40
2018-09-13T03:16:59.128Z,9.30
2018-09-13T03:17:59.074Z,10.00
2018-09-13T03:18:59.010Z,8.90
2018-09-13T03:19:58.950Z,8.70
2018-09-13T03:20:58.889Z,10.00
2018-09-13T03:21:58.833Z,9.50
2018-09-13T03:22:58.772Z,8.40
2018-09-13T03:23:58.717Z,10.80
2018-09-13T03:24:58.653Z,7.90
2018-09-13T03:25:58.615Z,8.30
2018-09-13T03:26:58.536Z,7.40
2018-09-13T03:27:58.476Z,7.90
2018-09-13T03:28:58.416Z,7.30
2018-09-13T03:29:58.358Z,6.80
2018-09-13T03:30:58.303Z,8.90
2018-09-13T03:31:58.240Z,6.40
2018-09-13T03:32:58.180Z,7.70
2018-09-13T03:33:58.118Z,10.00
2018-09-13T03:34:58.060Z,8.60
2018-09-13T03:35:58.001Z,6.50
2018-09-13T03:36:57.940Z,7.00
2018-09-13T03:37:57.882Z,7.50
2018-09-13T03:38:57.824Z,7.80
2018-09-13T03:39:57.764Z,5.40
2018-09-13T03:40:57.703Z,6.80
2018-09-13T03:41:57.679Z,6.00
2018-09-13T03:42:57.595Z,7.10
2018-09-13T03:43:57.527Z,4.60
2018-09-13T03:44:57.466Z,7.70
2018-09-13T03:45:57.407Z,5.90
2018-09-13T03:46:57.347Z,6.70
2018-09-13T03:47:57.289Z,6.40
2018-09-13T03:48:57.230Z,8.50
2018-09-13T03:49:57.170Z,6.80
2018-09-13T03:50:57.109Z,4.70
2018-09-13T03:51:57.052Z,4.40
2018-09-13T03:52:56.989Z,6.20
2018-09-13T03:53:56.932Z,6.90
2018-09-13T03:54:56.875Z,5.60
2018-09-13T03:55:56.816Z,6.80
2018-09-13T03:56:56.754Z,4.40
2018-09-13T03:57:56.698Z,6.10
2018-09-13T03:58:56.638Z,5.30
2018-09-13T03:59:56.577Z,6.50
2018-09-13T04:00:56.540Z,7.90
2018-09-13T04:01:56.458Z,9.80
2018-09-13T04:02:56.399Z,4.90
2018-09-13T04:03:56.341Z,5.80
2018-09-13T04:04:56.283Z,6.50
2018-09-13T04:05:56.224Z,4.60
2018-09-13T04:06:56.165Z,7.10
2018-09-13T04:07:56.102Z,3.50
2018-09-13T04:08:56.042Z,4.60
2018-09-13T04:09:55.984Z,5.20
2018-09-13T04:10:55.931Z,4.60
2018-09-13T04:11:55.883Z,5.30
2018-09-13T04:12:55.807Z,6.90
2018-09-13T04:13:55.748Z,6.00
2018-09-13T04:14:55.688Z,4.40
2018-09-13T04:15:55.628Z,3.90
2018-09-13T04:16:55.571Z,6.50
2018-09-13T04:17:55.510Z,7.30
2018-09-13T04:18:55.510Z,5.60
2018-09-13T04:19:55.407Z,4.30
2018-09-13T04:20:55.365Z,4.50
2018-09-13T04:21:55.299Z,5.90
2018-09-13T04:22:55.215Z,4.60
2018-09-13T04:23:55.219Z,4.10
2018-09-13T04:24:55.104Z,5.70
2018-09-13T04:25:55.034Z,5.40
2018-09-13T04:26:54.972Z,5.40
2018-09-13T04:27:54.915Z,5.60
2018-09-13T04:28:54.895Z,8.80
2018-09-13T04:29:54.872Z,5.90
2018-09-13T04:30:54.823Z,4.80
2018-09-13T04:31:54.681Z,5.00
2018-09-13T04:32:54.718Z,5.50
2018-09-13T04:33:54.599Z,6.10
2018-09-13T04:34:54.513Z,6.00
2018-09-13T04:35:54.593Z,7.10
2018-09-13T04:36:54.432Z,5.20
2018-09-13T04:37:54.334Z,5.70
2018-09-13T04:38:54.264Z,5.90
2018-09-13T04:39:54.210Z,6.00
2018-09-13T04:40:54.144Z,6.00
2018-09-13T04:41:54.088Z,4.50
2018-09-13T04:42:54.026Z,6.10
2018-09-13T04:43:53.981Z,6.30
2018-09-13T04:44:53.908Z,4.70
2018-09-13T04:45:53.846Z,5.60
2018-09-13T04:46:53.791Z,5.70
2018-09-13T04:47:53.730Z,7.40
2018-09-13T04:48:53.673Z,6.60
2018-09-13T04:49:53.613Z,5.30
2018-09-13T04:50:53.553Z,5.90
2018-09-13T04:51:53.494Z,5.30
2018-09-13T04:52:53.436Z,5.70
2018-09-13T04:53:53.375Z,5.60
2018-09-13T04:54:53.316Z,5.30
2018-09-13T04:55:53.257Z,7.50
2018-09-13T04:56:53.200Z,4.60
2018-09-13T04:57:53.136Z,6.80
2018-09-13T04:58:53.078Z,6.40
2018-09-13T04:59:53.019Z,5.70
2018-09-13T05:00:52.974Z,4.70
2018-09-13T05:01:52.900Z,5.40
2018-09-13T05:02:52.844Z,5.20
2018-09-13T05:03:52.786Z,9.10
2018-09-13T05:04:52.723Z,5.70
2018-09-13T05:05:52.664Z,6.50
2018-09-13T05:06:52.605Z,7.70
2018-09-13T05:07:52.546Z,6.20
2018-09-13T05:08:52.485Z,5.90
2018-09-13T05:09:52.427Z,5.90
2018-09-13T05:10:52.367Z,5.30
2018-09-13T05:11:52.309Z,6.60
2018-09-13T05:12:52.355Z,6.80
2018-09-13T05:13:52.188Z,5.60
2018-09-13T05:14:52.134Z,5.10
2018-09-13T05:15:52.073Z,5.80
2018-09-13T05:16:52.012Z,8.10
2018-09-13T05:17:51.950Z,7.40
2018-09-13T05:18:51.894Z,7.70
2018-09-13T05:19:51.862Z,6.60
2018-09-13T05:20:51.775Z,5.50
2018-09-13T05:21:51.715Z,5.00
2018-09-13T05:22:51.719Z,10.50
2018-09-13T05:23:51.597Z,7.00
2018-09-13T05:24:51.538Z,7.70
2018-09-13T05:25:51.477Z,5.40
2018-09-13T05:26:51.420Z,7.00
2018-09-13T05:27:51.360Z,5.80
2018-09-13T05:28:51.299Z,7.50
2018-09-13T05:29:51.250Z,7.50
2018-09-13T05:30:51.183Z,6.70
2018-09-13T05:31:51.125Z,6.50
2018-09-13T05:32:51.066Z,8.70
2018-09-13T05:33:51.003Z,7.50
2018-09-13T05:34:50.943Z,6.00
2018-09-13T05:35:50.885Z,8.10
2018-09-13T05:36:50.829Z,7.30
2018-09-13T05:37:50.771Z,7.10
2018-09-13T05:38:50.733Z,6.50
2018-09-13T05:39:50.648Z,7.90
2018-09-13T05:40:50.588Z,7.90
2018-09-13T05:41:50.530Z,8.40
2018-09-13T05:42:50.479Z,10.80
2018-09-13T05:43:50.417Z,9.20
2018-09-13T05:44:50.354Z,7.30
2018-09-13T05:45:50.296Z,10.00
2018-09-13T05:46:50.232Z,10.00
2018-09-13T05:47:50.177Z,8.20
2018-09-13T05:48:50.115Z,8.90
2018-09-13T05:49:50.056Z,7.50
2018-09-13T05:50:49.998Z,9.60
2018-09-13T05:51:49.938Z,8.80
2018-09-13T05:52:49.878Z,8.80
2018-09-13T05:53:49.871Z,7.10
2018-09-13T05:54:49.769Z,6.30
2018-09-13T05:55:49.699Z,10.60
2018-09-13T05:56:49.640Z,7.60
2018-09-13T05:57:49.580Z,6.80
2018-09-13T05:58:49.522Z,7.60
2018-09-13T05:59:49.459Z,7.10
2018-09-13T06:00:49.405Z,7.40
2018-09-13T06:01:49.345Z,7.00
2018-09-13T06:02:49.285Z,7.70
2018-09-13T06:03:49.234Z,5.90
2018-09-13T06:04:49.167Z,9.20
2018-09-13T06:05:49.107Z,7.90
2018-09-13T06:06:49.048Z,8.00
2018-09-13T06:07:49.011Z,7.80
2018-09-13T06:08:48.938Z,5.90
2018-09-13T06:09:48.868Z,6.10
2018-09-13T06:10:48.810Z,6.90
2018-09-13T06:11:48.756Z,6.60
2018-09-13T06:12:48.693Z,7.40
2018-09-13T06:13:48.634Z,8.40
2018-09-13T06:14:48.575Z,6.60
2018-09-13T06:15:48.517Z,5.80
2018-09-13T06:16:48.454Z,7.80
2018-09-13T06:17:48.396Z,7.40
2018-09-13T06:18:48.346Z,6.20
2018-09-13T06:19:48.387Z,8.00
2018-09-13T06:20:48.222Z,6.90
2018-09-13T06:21:48.163Z,8.70
2018-09-13T06:22:48.102Z,8.30
2018-09-13T06:23:48.042Z,7.90
2018-09-13T06:24:47.982Z,9.80
2018-09-13T06:25:47.924Z,9.40
2018-09-13T06:26:47.865Z,8.00
2018-09-13T06:27:47.811Z,7.90
2018-09-13T06:28:47.748Z,10.60
2018-09-13T06:29:47.690Z,9.40
2018-09-13T06:30:47.630Z,10.20
2018-09-13T06:31:47.570Z,8.10
2018-09-13T06:32:47.513Z,7.50
2018-09-13T06:33:47.461Z,8.10
2018-09-13T06:34:47.393Z,8.60
2018-09-13T06:35:47.336Z,8.80
2018-09-13T06:36:47.275Z,8.20
2018-09-13T06:37:47.214Z,10.10
2018-09-13T06:38:47.155Z,8.80
2018-09-13T06:39:47.110Z,10.30
2018-09-13T06:40:47.038Z,8.00
2018-09-13T06:41:46.980Z,7.40
2018-09-13T06:42:46.920Z,8.10
2018-09-13T06:43:46.864Z,7.60
2018-09-13T06:44:46.802Z,8.50
2018-09-13T06:45:46.744Z,9.50
2018-09-13T06:46:46.685Z,8.90
2018-09-13T06:47:46.627Z,7.30
2018-09-13T06:48:46.564Z,8.20
2018-09-13T06:49:46.508Z,8.70
2018-09-13T06:50:46.449Z,8.00
2018-09-13T06:51:46.389Z,8.80
2018-09-13T06:52:46.337Z,12.20
2018-09-13T06:53:46.272Z,11.70
2018-09-13T06:54:46.216Z,11.90
2018-09-13T06:55:46.159Z,9.70
2018-09-13T06:56:46.098Z,8.90
2018-09-13T06:57:46.036Z,12.90
2018-09-13T06:58:45.979Z,12.50
2018-09-13T06:59:45.918Z,12.10
2018-09-13T07:00:45.860Z,9.40
2018-09-13T07:01:45.798Z,9.60
2018-09-13T07:02:45.740Z,10.60
2018-09-13T07:03:45.681Z,10.90
2018-09-13T07:04:45.623Z,11.40
2018-09-13T07:05:45.565Z,12.90
2018-09-13T07:06:45.507Z,10.00
2018-09-13T07:07:45.446Z,10.40
2018-09-13T07:08:45.387Z,10.70
2018-09-13T07:09:45.330Z,8.70
2018-09-13T07:10:45.271Z,12.60
2018-09-13T07:11:45.213Z,8.80
2018-09-13T07:12:45.150Z,8.00
2018-09-13T07:13:45.109Z,8.30
2018-09-13T07:14:45.040Z,10.20
2018-09-13T07:15:44.969Z,9.70
2018-09-13T07:16:44.924Z,9.30
2018-09-13T07:17:44.860Z,9.60
2018-09-13T07:18:44.798Z,9.30
2018-09-13T07:19:44.739Z,9.30
2018-09-13T07:20:44.688Z,10.60
2018-09-13T07:21:44.620Z,10.50
2018-09-13T07:22:44.563Z,10.00
2018-09-13T07:23:44.581Z,9.10
2018-09-13T07:24:44.447Z,9.20
2018-09-13T07:25:44.387Z,10.60
2018-09-13T07:26:44.331Z,9.20
2018-09-13T07:27:44.269Z,9.20
2018-09-13T07:28:44.210Z,10.30
2018-09-13T07:29:44.156Z,10.30
2018-09-13T07:30:44.110Z,11.00
2018-09-13T07:31:44.037Z,8.50
2018-09-13T07:32:43.976Z,9.10
2018-09-13T07:33:43.919Z,9.30
2018-09-13T07:34:43.861Z,8.90
2018-09-13T07:35:43.803Z,10.50
2018-09-13T07:36:43.797Z,10.20
2018-09-13T07:37:43.683Z,11.40
2018-09-13T07:38:43.627Z,10.90
2018-09-13T07:39:43.571Z,11.10
2018-09-13T07:40:43.508Z,9.30
2018-09-13T07:41:43.449Z,8.40
2018-09-13T07:42:43.510Z,10.90
2018-09-13T07:43:43.332Z,9.20
2018-09-13T07:44:43.274Z,9.00
2018-09-13T07:45:43.216Z,10.60
2018-09-13T07:46:43.159Z,11.80
2018-09-13T07:47:43.100Z,12.30
2018-09-13T07:48:43.042Z,9.10
2018-09-13T07:49:43.155Z,15.90
2018-09-13T07:50:42.925Z,15.60
2018-09-13T07:51:42.866Z,17.60
2018-09-13T07:52:42.810Z,16.20
2018-09-13T07:53:42.752Z,11.10
2018-09-13T07:54:42.691Z,11.60
2018-09-13T07:55:42.692Z,13.10
2018-09-13T07:56:42.573Z,10.20
2018-09-13T07:57:42.527Z,11.70
2018-09-13T07:58:42.459Z,13.30
2018-09-13T07:59:42.403Z,13.00
2018-09-13T08:00:42.341Z,12.00
2018-09-13T08:01:42.284Z,13.30
2018-09-13T08:02:42.224Z,11.80
2018-09-13T08:03:42.167Z,10.50
2018-09-13T08:04:42.117Z,12.70
2018-09-13T08:05:42.049Z,11.40
2018-09-13T08:06:41.993Z,12.10
2018-09-13T08:07:41.932Z,7.00
2018-09-13T08:08:41.874Z,8.60
2018-09-13T08:09:41.819Z,9.70
2018-09-13T08:10:41.760Z,7.90
2018-09-13T08:11:41.771Z,9.40
2018-09-13T08:12:41.642Z,8.60
2018-09-13T08:13:41.588Z,7.00
2018-09-13T08:14:41.527Z,6.70
2018-09-13T08:15:41.478Z,7.10
2018-09-13T08:16:41.409Z,8.90
2018-09-13T08:17:41.354Z,7.10
2018-09-13T08:18:41.295Z,9.10
2018-09-13T08:19:41.235Z,7.20
2018-09-13T08:20:41.174Z,10.10
2018-09-13T08:21:41.212Z,7.40
2018-09-13T08:22:41.066Z,8.00
2018-09-13T08:23:41.004Z,8.10
2018-09-13T08:24:40.946Z,7.20
2018-09-13T08:25:40.888Z,8.20
2018-09-13T08:26:40.831Z,8.90
2018-09-13T08:27:40.773Z,8.90
2018-09-13T08:28:40.714Z,7.60
2018-09-13T08:29:40.659Z,6.80
2018-09-13T08:30:40.599Z,10.80
2018-09-13T08:31:40.542Z,9.40
2018-09-13T08:32:40.483Z,7.10
2018-09-13T08:33:40.432Z,7.10
2018-09-13T08:34:40.454Z,6.20
2018-09-13T08:35:40.309Z,7.10
2018-09-13T08:36:40.254Z,5.90
2018-09-13T08:37:40.201Z,8.80
2018-09-13T08:38:40.131Z,7.90
2018-09-13T08:39:40.122Z,5.60
2018-09-13T08:40:40.021Z,7.10
2018-09-13T08:41:39.965Z,6.40
2018-09-13T08:42:39.904Z,7.60
2018-09-13T08:43:39.850Z,7.00
2018-09-13T08:44:39.788Z,6.00
2018-09-13T08:45:39.738Z,8.10
2018-09-13T08:46:39.672Z,8.70
2018-09-13T08:47:39.726Z,8.60
2018-09-13T08:48:39.571Z,7.80
2018-09-13T08:49:39.504Z,7.80
2018-09-13T08:50:39.444Z,7.00
2018-09-13T08:51:39.387Z,8.00
2018-09-13T08:52:39.331Z,6.90
2018-09-13T08:53:39.279Z,6.60
2018-09-13T08:54:39.215Z,7.20
2018-09-13T08:55:39.156Z,6.30
2018-09-13T08:56:39.096Z,5.70
2018-09-13T08:57:39.043Z,5.40
2018-09-13T08:58:38.982Z,6.70
2018-09-13T08:59:38.926Z,8.80
2018-09-13T09:00:38.891Z,6.20
2018-09-13T09:01:38.810Z,6.60
2018-09-13T09:02:38.752Z,8.30
2018-09-13T09:03:38.695Z,9.50
2018-09-13T09:04:38.638Z,7.30
2018-09-13T09:05:38.581Z,7.50
2018-09-13T09:06:38.523Z,7.30
2018-09-13T09:07:38.466Z,8.10
2018-09-13T09:08:38.409Z,10.70
2018-09-13T09:09:38.351Z,6.30
2018-09-13T09:10:38.292Z,7.90
2018-09-13T09:11:38.238Z,7.60
2018-09-13T09:12:38.178Z,8.10
2018-09-13T09:13:38.116Z,5.40
2018-09-13T09:14:38.070Z,9.70
2018-09-13T09:15:38.013Z,8.40
2018-09-13T09:16:37.952Z,6.20
2018-09-13T09:17:37.890Z,6.00
2018-09-13T09:18:37.905Z,6.20
2018-09-13T09:19:37.776Z,5.90
2018-09-13T09:20:37.718Z,5.60
2018-09-13T09:21:37.662Z,5.90
2018-09-13T09:22:37.605Z,6.20
2018-09-13T09:23:37.550Z,4.90
2018-09-13T09:24:37.492Z,6.20
2018-09-13T09:25:37.435Z,6.90
2018-09-13T09:26:37.412Z,5.20
2018-09-13T09:27:37.319Z,7.10
2018-09-13T09:28:37.264Z,8.40
2018-09-13T09:29:37.207Z,7.90
2018-09-13T09:30:37.147Z,6.30
2018-09-13T09:31:37.092Z,8.10
2018-09-13T09:32:37.035Z,6.40
2018-09-13T09:33:36.977Z,5.40
2018-09-13T09:34:36.971Z,5.60
2018-09-13T09:35:36.883Z,6.60
2018-09-13T09:36:36.812Z,5.30
2018-09-13T09:37:36.754Z,5.30
2018-09-13T09:38:36.692Z,8.60
2018-09-13T09:39:36.642Z,7.10
2018-09-13T09:40:36.625Z,7.80
2018-09-13T09:41:36.522Z,7.20
2018-09-13T09:42:36.468Z,5.70
2018-09-13T09:43:36.407Z,6.50
2018-09-13T09:44:36.351Z,5.90
2018-09-13T09:45:36.299Z,7.50
2018-09-13T09:46:36.237Z,6.10
2018-09-13T09:47:36.181Z,6.40
2018-09-13T09:48:36.131Z,5.80
2018-09-13T09:49:36.072Z,4.80
2018-09-13T09:50:36.068Z,6.50
2018-09-13T09:51:35.953Z,6.60
2018-09-13T09:52:35.899Z,7.50
2018-09-13T09:53:35.841Z,7.70
2018-09-13T09:54:35.781Z,6.30
2018-09-13T09:55:35.792Z,8.00
2018-09-13T09:56:35.671Z,7.40
2018-09-13T09:57:35.616Z,6.60
2018-09-13T09:58:35.558Z,9.50
2018-09-13T09:59:35.503Z,5.60
2018-09-13T10:00:35.446Z,7.00
2018-09-13T10:01:35.446Z,6.60
2018-09-13T10:02:35.334Z,4.80
2018-09-13T10:03:35.281Z,5.30
2018-09-13T10:04:35.279Z,7.40
2018-09-13T10:05:35.161Z,9.40
2018-09-13T10:06:35.112Z,10.70
2018-09-13T10:07:35.059Z,7.60
2018-09-13T10:08:34.995Z,6.80
2018-09-13T10:09:34.962Z,7.00
2018-09-13T10:10:34.883Z,5.50
2018-09-13T10:11:34.829Z,5.30
2018-09-13T10:12:34.780Z,7.20
2018-09-13T10:13:34.718Z,5.30
2018-09-13T10:14:34.660Z,5.20
2018-09-13T10:15:34.605Z,6.20
2018-09-13T10:16:34.550Z,5.80
2018-09-13T10:17:34.493Z,5.10
2018-09-13T10:18:34.464Z,6.50
2018-09-13T10:19:34.383Z,6.80
2018-09-13T10:20:34.328Z,5.90
2018-09-13T10:21:34.265Z,4.80
2018-09-13T10:22:34.211Z,5.90
2018-09-13T10:23:34.184Z,4.80
2018-09-13T10:24:34.098Z,6.10
2018-09-13T10:25:34.045Z,7.00
2018-09-13T10:26:34.520Z,6.20
2018-09-13T10:27:33.966Z,5.30
2018-09-13T10:28:33.930Z,7.70
2018-09-13T10:29:33.872Z,6.10
2018-09-13T10:30:33.766Z,5.30
2018-09-13T10:31:33.708Z,6.10
2018-09-13T10:32:33.650Z,6.10
2018-09-13T10:33:33.645Z,4.50
2018-09-13T10:34:33.540Z,5.40
2018-09-13T10:35:33.485Z,5.70
2018-09-13T10:36:33.715Z,6.00
2018-09-13T10:37:33.375Z,7.30
2018-09-13T10:38:33.318Z,5.60
2018-09-13T10:39:33.263Z,4.50
2018-09-13T10:40:33.236Z,5.90
2018-09-13T10:41:33.164Z,5.80
2018-09-13T10:42:33.098Z,5.90
2018-09-13T10:43:33.047Z,5.70
2018-09-13T10:44:32.984Z,6.70
2018-09-13T10:45:32.932Z,6.00
2018-09-13T10:46:32.880Z,4.20
2018-09-13T10:47:32.892Z,5.70
2018-09-13T10:48:32.763Z,5.60
2018-09-13T10:49:32.709Z,7.30
2018-09-13T10:50:32.691Z,3.70
2018-09-13T10:51:32.626Z,6.30
2018-09-13T10:52:32.550Z,6.70
2018-09-13T10:53:32.573Z,5.90
2018-09-13T10:54:32.431Z,4.80
2018-09-13T10:55:32.430Z,5.60
2018-09-13T10:56:32.326Z,5.70
2018-09-13T10:57:32.265Z,8.40
2018-09-13T10:58:32.212Z,5.70
2018-09-13T10:59:32.157Z,6.50
2018-09-13T11:00:32.098Z,8.40
2018-09-13T11:01:32.046Z,5.40
2018-09-13T11:02:32.027Z,5.10
2018-09-13T11:03:32.019Z,6.50
2018-09-13T11:04:32.034Z,6.60
2018-09-13T11:05:31.857Z,4.90
2018-09-13T11:06:31.765Z,6.00
2018-09-13T11:07:31.719Z,9.10
2018-09-13T11:08:31.658Z,8.60
2018-09-13T11:09:31.604Z,7.30
2018-09-13T11:10:31.556Z,6.60
2018-09-13T11:11:31.491Z,6.40
2018-09-13T11:12:31.470Z,7.00
2018-09-13T11:13:31.381Z,5.10
2018-09-13T11:14:31.326Z,6.80
2018-09-13T11:15:31.273Z,7.30
2018-09-13T11:16:31.216Z,6.20
2018-09-13T11:17:31.160Z,4.50
2018-09-13T11:18:31.104Z,11.60
2018-09-13T11:19:31.051Z,6.10
2018-09-13T11:20:30.994Z,7.00
2018-09-13T11:21:30.941Z,4.50
2018-09-13T11:22:30.884Z,5.90
2018-09-13T11:23:30.830Z,5.60
2018-09-13T11:24:30.805Z,4.10
2018-09-13T11:25:30.720Z,6.90
2018-09-13T11:26:30.662Z,7.10
2018-09-13T11:27:30.605Z,7.30
2018-09-13T11:28:30.552Z,5.90
2018-09-13T11:29:30.494Z,6.50
2018-09-13T11:30:30.445Z,7.30
2018-09-13T11:31:30.392Z,6.40
2018-09-13T11:32:30.328Z,6.40
2018-09-13T11:33:30.277Z,3.90
2018-09-13T11:34:30.217Z,5.80
2018-09-13T11:35:30.163Z,4.40
2018-09-13T11:36:30.107Z,5.60
2018-09-13T11:37:30.051Z,6.70
2018-09-13T11:38:29.996Z,6.20
2018-09-13T11:39:29.948Z,4.10
2018-09-13T11:40:29.997Z,4.90
2018-09-13T11:41:29.829Z,6.00
2018-09-13T11:42:29.774Z,4.80
2018-09-13T11:43:29.720Z,5.60
2018-09-13T11:44:29.663Z,4.90
2018-09-13T11:45:29.610Z,5.30
2018-09-13T11:46:29.555Z,5.60
2018-09-13T11:47:29.498Z,6.80
2018-09-13T11:48:29.441Z,7.10
2018-09-13T11:49:29.393Z,5.70
2018-09-13T11:50:29.332Z,4.40
2018-09-13T11:51:29.276Z,6.70
2018-09-13T11:52:29.221Z,5.50
2018-09-13T11:53:29.165Z,6.30
2018-09-13T11:54:29.446Z,5.80
2018-09-13T11:55:29.133Z,4.70
2018-09-13T11:56:29.011Z,5.70
2018-09-13T11:57:28.946Z,7.30
2018-09-13T11:58:28.892Z,5.30
2018-09-13T11:59:28.833Z,6.20
2018-09-13T12:00:28.776Z,6.50
2018-09-13T12:01:28.725Z,6.90
2018-09-13T12:02:28.667Z,5.70
2018-09-13T12:03:28.612Z,5.60
2018-09-13T12:04:28.559Z,6.80
2018-09-13T12:05:28.501Z,32.50
2018-09-13T12:06:28.452Z,18.50
2018-09-13T12:07:28.392Z,9.60
2018-09-13T12:08:28.339Z,10.60
2018-09-13T12:09:28.353Z,9.80
2018-09-13T12:10:28.224Z,7.30
2018-09-13T12:11:28.169Z,7.50
2018-09-13T12:12:28.113Z,7.80
2018-09-13T12:13:28.058Z,9.40
2018-09-13T12:14:28.004Z,9.20
2018-09-13T12:15:27.947Z,8.30
2018-09-13T12:16:27.892Z,6.90
2018-09-13T12:17:27.838Z,8.90
2018-09-13T12:18:27.793Z,8.60
2018-09-13T12:19:27.726Z,5.90
2018-09-13T12:20:27.671Z,6.40
2018-09-13T12:21:27.618Z,8.60
2018-09-13T12:22:27.564Z,6.20
2018-09-13T12:23:27.507Z,6.10
2018-09-13T12:24:27.451Z,5.60
2018-09-13T12:25:27.397Z,7.20
2018-09-13T12:26:27.343Z,4.70
2018-09-13T12:27:27.309Z,5.70
2018-09-13T12:28:27.228Z,6.80
2018-09-13T12:29:27.172Z,6.00
2018-09-13T12:30:27.119Z,5.20
2018-09-13T12:31:27.064Z,6.00
2018-09-13T12:32:27.017Z,6.70
2018-09-13T12:33:26.956Z,4.30
2018-09-13T12:34:26.898Z,6.20
2018-09-13T12:35:26.842Z,6.00
2018-09-13T12:36:26.785Z,4.50
2018-09-13T12:37:26.731Z,5.10
2018-09-13T12:38:26.693Z,6.60
2018-09-13T12:39:26.629Z,5.50
2018-09-13T12:40:26.566Z,4.50
2018-09-13T12:41:26.510Z,6.30
2018-09-13T12:42:26.455Z,4.70
2018-09-13T12:43:26.400Z,4.40
2018-09-13T12:44:26.344Z,6.60
2018-09-13T12:45:26.289Z,6.00
2018-09-13T12:46:26.233Z,6.80
2018-09-13T12:47:26.178Z,5.00
2018-09-13T12:48:26.157Z,5.40
2018-09-13T12:49:26.066Z,6.20
2018-09-13T12:50:26.025Z,6.40
2018-09-13T12:51:25.964Z,6.20
2018-09-13T12:52:25.904Z,6.30
2018-09-13T12:53:25.847Z,5.70
2018-09-13T12:54:25.794Z,6.90
2018-09-13T12:55:25.741Z,5.40
2018-09-13T12:56:25.713Z,7.90
2018-09-13T12:57:25.624Z,7.00
2018-09-13T12:58:25.574Z,5.10
2018-09-13T12:59:25.520Z,6.90
2018-09-13T13:00:25.457Z,7.00
2018-09-13T13:01:25.406Z,7.80
2018-09-13T13:02:25.347Z,7.70
2018-09-13T13:03:25.293Z,9.90
2018-09-13T13:04:25.237Z,4.00
2018-09-13T13:05:25.183Z,6.40
2018-09-13T13:06:25.127Z,6.00
2018-09-13T13:07:25.072Z,6.30
2018-09-13T13:08:25.016Z,7.00
2018-09-13T13:09:24.962Z,6.90